McGill, Nevada
Current Conditions -  °F | °C
As of 2:53 PM on Wednesday 26 Nov 2014 (Local Time) from KELY Reporting Station
Clear Clear  
Wind Chill: 62°   Ceiling: Unl
Heat Index: 62°   Visibility: 10mi
Dew Point: 14°   Wind: 8mph
Humidity: 15%   Direction: 260°W
Pressure: 30.41"   Gusts: NA
Location:  39.4°N, 114.78°W
Report Text: KELY 262253Z AUTO 26007KT 10SM CLR 17/M10 A3041 RMK AO2 SLP270 T01671100
Loading
Personal Weather Stations






























Interactive Weather Map New forecast layout! Learn more

10-Day Weather Forecast

Advertisements
Track Severe Weather on mobile